createdAt,value
2022-11-02T00:00:52.101Z,1.00
2022-11-02T00:03:20.050Z,1.47
2022-11-02T00:05:49.046Z,0.73
2022-11-02T00:08:19.061Z,1.37
2022-11-02T00:10:49.017Z,0.97
2022-11-02T00:13:15.950Z,0.87
2022-11-02T00:15:47.331Z,0.90
2022-11-02T00:18:15.735Z,1.13
2022-11-02T00:20:45.829Z,1.03
2022-11-02T00:23:15.927Z,0.73
2022-11-02T00:25:50.224Z,0.87
2022-11-02T00:28:18.198Z,1.30
2022-11-02T00:30:47.521Z,1.57
2022-11-02T00:33:17.546Z,1.50
2022-11-02T00:35:46.826Z,0.97
2022-11-02T00:38:13.918Z,1.37
2022-11-02T00:40:41.860Z,1.23
2022-11-02T00:43:12.199Z,1.10
2022-11-02T00:45:42.456Z,1.57
2022-11-02T00:48:12.427Z,1.80
2022-11-02T00:50:42.414Z,1.63
2022-11-02T00:53:10.297Z,1.63
2022-11-02T00:55:40.351Z,1.50
2022-11-02T00:58:09.289Z,1.37
2022-11-02T01:00:38.198Z,2.57
2022-11-02T01:03:07.321Z,1.70
2022-11-02T01:05:34.222Z,1.10
2022-11-02T01:08:01.224Z,1.23
2022-11-02T01:10:29.345Z,1.23
2022-11-02T01:13:00.658Z,1.20
2022-11-02T01:15:30.711Z,1.60
2022-11-02T01:18:00.822Z,1.30
2022-11-02T01:20:29.877Z,1.47
2022-11-02T01:23:00.120Z,1.87
2022-11-02T01:25:30.147Z,1.70
2022-11-02T01:28:05.669Z,1.90
2022-11-02T01:30:34.934Z,1.63
2022-11-02T01:33:05.917Z,2.10
2022-11-02T01:35:38.819Z,2.03
2022-11-02T01:38:06.163Z,2.37
2022-11-02T01:40:40.646Z,2.43
2022-11-02T01:43:27.731Z,2.30
2022-11-02T01:46:08.259Z,2.50
2022-11-02T01:48:49.188Z,2.00
2022-11-02T01:51:26.297Z,2.20
2022-11-02T01:54:02.749Z,2.00
2022-11-02T01:56:33.627Z,2.30
2022-11-02T01:59:07.053Z,1.60
2022-11-02T02:01:37.355Z,3.10
2022-11-02T02:04:08.287Z,2.17
2022-11-02T02:06:39.612Z,2.30
2022-11-02T02:09:10.155Z,2.43
2022-11-02T02:11:40.089Z,2.53
2022-11-02T02:14:12.177Z,2.40
2022-11-02T02:17:18.344Z,2.67
2022-11-02T02:20:11.242Z,2.23
2022-11-02T02:22:55.305Z,2.47
2022-11-02T02:25:42.308Z,1.87
2022-11-02T02:28:31.463Z,2.43
2022-11-02T02:31:31.813Z,2.40
2022-11-02T02:34:10.872Z,2.53
2022-11-02T02:36:40.925Z,2.57
2022-11-02T02:39:19.778Z,2.40
2022-11-02T02:41:59.649Z,2.00
2022-11-02T02:44:36.307Z,1.80
2022-11-02T02:47:21.477Z,2.40
2022-11-02T02:49:53.739Z,2.33
2022-11-02T02:52:23.600Z,2.57
2022-11-02T02:54:53.310Z,2.40
2022-11-02T02:57:23.905Z,2.90
2022-11-02T02:59:52.887Z,2.83
2022-11-02T03:02:30.164Z,2.03
2022-11-02T03:05:00.402Z,2.40
2022-11-02T03:07:33.841Z,2.50
2022-11-02T03:10:08.249Z,1.57
2022-11-02T03:13:07.719Z,2.03
2022-11-02T03:15:40.788Z,2.17
2022-11-02T03:18:37.350Z,2.10
2022-11-02T03:21:23.448Z,1.90
2022-11-02T03:24:04.102Z,2.20
2022-11-02T03:27:09.621Z,1.87
2022-11-02T03:30:05.466Z,1.73
2022-11-02T03:33:13.148Z,1.87
2022-11-02T03:35:56.702Z,1.57
2022-11-02T03:38:35.340Z,2.37
2022-11-02T03:41:06.290Z,2.07
2022-11-02T03:43:44.143Z,1.83
2022-11-02T03:46:16.437Z,2.17
2022-11-02T03:48:49.432Z,2.43
2022-11-02T03:51:22.745Z,1.70
2022-11-02T03:54:08.464Z,1.90
2022-11-02T03:59:35.145Z,1.90
2022-11-02T04:02:05.288Z,1.30
2022-11-02T04:04:33.303Z,1.70
2022-11-02T04:07:02.361Z,1.87
2022-11-02T04:09:29.259Z,1.80
2022-11-02T04:12:14.786Z,1.97
2022-11-02T04:14:44.814Z,1.80
2022-11-02T04:17:33.153Z,1.73
2022-11-02T04:19:59.991Z,1.40
2022-11-02T04:22:53.312Z,2.20
2022-11-02T04:25:26.276Z,1.77
2022-11-02T04:27:53.743Z,1.57
2022-11-02T04:30:22.966Z,1.93
2022-11-02T04:33:11.191Z,2.00
2022-11-02T04:35:40.142Z,1.27
2022-11-02T04:38:28.372Z,1.50
2022-11-02T04:41:16.285Z,1.87
2022-11-02T04:43:45.240Z,2.00
2022-11-02T04:46:15.242Z,2.10
2022-11-02T04:48:45.198Z,1.67
2022-11-02T04:51:15.765Z,1.33
2022-11-02T04:53:45.706Z,2.37
2022-11-02T04:56:15.996Z,1.87
2022-11-02T04:58:44.106Z,2.00
2022-11-02T05:01:15.076Z,1.47
2022-11-02T05:03:43.507Z,1.93
2022-11-02T05:06:11.342Z,1.83
2022-11-02T05:08:39.402Z,1.80
2022-11-02T05:11:10.713Z,2.00
2022-11-02T05:13:38.957Z,2.77
2022-11-02T05:16:06.911Z,1.00
2022-11-02T05:18:36.845Z,1.90
2022-11-02T05:21:13.981Z,1.83
2022-11-02T05:23:43.942Z,1.80
2022-11-02T05:26:13.943Z,2.13
2022-11-02T05:28:45.995Z,1.90
2022-11-02T05:31:15.992Z,2.47
2022-11-02T05:33:43.926Z,2.30
2022-11-02T05:36:11.166Z,2.20
2022-11-02T05:38:41.236Z,1.70
2022-11-02T05:41:09.551Z,1.30
2022-11-02T05:43:39.515Z,1.27
2022-11-02T05:46:09.638Z,2.47
2022-11-02T05:48:36.553Z,1.70
2022-11-02T05:51:07.082Z,2.50
2022-11-02T05:53:37.427Z,1.57
2022-11-02T05:56:08.712Z,1.97
2022-11-02T05:58:37.788Z,1.97
2022-11-02T06:01:08.491Z,1.83
2022-11-02T06:03:36.384Z,2.20
2022-11-02T06:06:09.834Z,2.07
2022-11-02T06:08:38.803Z,1.90
2022-11-02T06:11:07.219Z,1.50
2022-11-02T06:13:35.337Z,1.63
2022-11-02T06:16:06.575Z,1.77
2022-11-02T06:18:37.359Z,1.53
2022-11-02T06:21:07.331Z,1.67
2022-11-02T06:23:37.773Z,2.20
2022-11-02T06:26:07.796Z,1.90
2022-11-02T06:28:37.892Z,1.43
2022-11-02T06:31:10.970Z,1.70
2022-11-02T06:33:39.905Z,2.13
2022-11-02T06:36:08.931Z,1.63
2022-11-02T06:38:36.058Z,2.60
2022-11-02T06:41:07.017Z,1.23
2022-11-02T06:43:38.319Z,1.50
2022-11-02T06:46:08.925Z,2.10
2022-11-02T06:48:41.854Z,2.80
2022-11-02T06:51:11.796Z,2.17
2022-11-02T06:53:41.687Z,2.13
2022-11-02T06:56:12.668Z,2.33
2022-11-02T06:58:40.660Z,2.83
2022-11-02T07:01:09.873Z,1.83
2022-11-02T07:03:37.918Z,1.70
2022-11-02T07:06:11.252Z,1.87
2022-11-02T07:08:42.867Z,2.60
2022-11-02T07:11:18.946Z,2.43
2022-11-02T07:13:45.994Z,2.27
2022-11-02T07:16:14.141Z,2.23
2022-11-02T07:18:44.159Z,2.37
2022-11-02T07:21:13.311Z,2.30
2022-11-02T07:23:40.354Z,1.83
2022-11-02T07:26:07.245Z,1.60
2022-11-02T07:28:38.257Z,1.90
2022-11-02T07:31:07.343Z,1.80
2022-11-02T07:33:34.311Z,1.70
2022-11-02T07:36:04.159Z,2.07
2022-11-02T07:38:31.238Z,1.77
2022-11-02T07:40:59.197Z,1.60
2022-11-02T07:43:29.018Z,2.83
2022-11-02T07:45:57.926Z,1.67
2022-11-02T07:48:26.785Z,2.10
2022-11-02T07:50:53.744Z,1.70
2022-11-02T07:53:23.778Z,1.87
2022-11-02T07:55:50.857Z,1.73
2022-11-02T07:58:17.765Z,1.50
2022-11-02T08:00:46.954Z,1.80
2022-11-02T08:03:14.942Z,1.83
2022-11-02T08:05:43.400Z,1.50
2022-11-02T08:08:21.401Z,2.20
2022-11-02T08:10:51.029Z,2.13
2022-11-02T08:13:21.341Z,1.90
2022-11-02T08:15:54.760Z,1.85
2022-11-02T08:18:25.758Z,2.00
2022-11-02T08:20:57.652Z,2.05
2022-11-02T08:23:26.075Z,1.60
2022-11-02T08:25:58.429Z,1.90
2022-11-02T08:28:32.083Z,1.98
2022-11-02T08:31:00.081Z,2.17
2022-11-02T08:33:30.558Z,2.00
2022-11-02T08:36:03.800Z,2.53
2022-11-02T08:38:32.632Z,2.08
2022-11-02T08:41:00.768Z,2.47
2022-11-02T08:43:29.121Z,2.13
2022-11-02T08:46:16.605Z,2.28
2022-11-02T08:48:45.032Z,2.05
2022-11-02T08:51:15.238Z,2.70
2022-11-02T08:53:44.725Z,2.58
2022-11-02T08:56:15.273Z,2.50
2022-11-02T08:58:43.195Z,2.40
2022-11-02T09:01:11.189Z,2.47
2022-11-02T09:03:42.385Z,2.33
2022-11-02T09:06:11.345Z,2.53
2022-11-02T09:08:41.283Z,2.63
2022-11-02T09:11:10.239Z,2.45
2022-11-02T09:13:40.243Z,2.88
2022-11-02T09:16:10.345Z,2.10
2022-11-02T09:18:40.394Z,2.30
2022-11-02T09:21:09.420Z,3.05
2022-11-02T09:23:39.521Z,2.78
2022-11-02T09:26:07.597Z,2.55
2022-11-02T09:28:36.537Z,3.72
2022-11-02T09:31:07.317Z,2.80
2022-11-02T09:33:37.686Z,2.42
2022-11-02T09:36:06.796Z,2.90
2022-11-02T09:38:33.946Z,2.55
2022-11-02T09:41:13.798Z,2.50
2022-11-02T09:44:12.702Z,3.10
2022-11-02T09:46:43.054Z,3.20
2022-11-02T09:49:17.066Z,3.25
2022-11-02T09:51:50.724Z,3.20
2022-11-02T09:54:20.951Z,2.70
2022-11-02T09:56:51.567Z,2.67
2022-11-02T09:59:22.010Z,2.55
2022-11-02T10:02:27.586Z,2.50
2022-11-02T10:05:04.419Z,2.70
2022-11-02T10:07:50.267Z,2.83
2022-11-02T10:10:29.715Z,2.67
2022-11-02T10:12:56.565Z,3.17
2022-11-02T10:15:32.776Z,2.70
2022-11-02T10:18:01.407Z,2.90
2022-11-02T10:20:51.270Z,2.78
2022-11-02T10:23:40.490Z,3.15
2022-11-02T10:26:12.838Z,2.35
2022-11-02T10:28:47.904Z,2.70
2022-11-02T10:31:31.166Z,2.97
2022-11-02T10:34:21.870Z,3.17
2022-11-02T10:37:08.792Z,3.33
2022-11-02T10:39:53.866Z,2.97
2022-11-02T10:42:31.789Z,3.47
2022-11-02T10:45:20.406Z,3.50
2022-11-02T10:47:47.225Z,2.57
2022-11-02T10:50:35.401Z,3.20
2022-11-02T10:53:35.354Z,2.75
2022-11-02T10:56:17.700Z,3.08
2022-11-02T10:59:17.171Z,2.95
2022-11-02T11:01:59.416Z,2.58
2022-11-02T11:04:31.954Z,3.00
2022-11-02T11:07:08.063Z,2.53
2022-11-02T11:09:56.125Z,2.92
2022-11-02T11:12:41.110Z,2.53
2022-11-02T11:21:03.515Z,2.57
2022-11-02T11:23:38.491Z,3.20
2022-11-02T11:26:12.110Z,2.80
2022-11-02T11:28:52.654Z,3.33
2022-11-02T11:31:21.259Z,2.50
2022-11-02T11:33:55.183Z,2.73
2022-11-02T11:36:44.123Z,3.33
2022-11-02T11:39:28.378Z,2.80
2022-11-02T11:41:57.026Z,2.80
2022-11-02T11:44:27.060Z,2.50
2022-11-02T11:46:58.141Z,1.90
2022-11-02T11:49:55.068Z,2.33
2022-11-02T11:52:32.089Z,2.40
2022-11-02T11:55:24.059Z,2.30
2022-11-02T11:58:23.714Z,2.00
2022-11-02T12:01:16.659Z,2.43
2022-11-02T12:03:55.568Z,2.43
2022-11-02T12:06:34.479Z,1.87
2022-11-02T12:09:22.839Z,2.33
2022-11-02T12:12:26.307Z,2.00
2022-11-02T12:15:04.032Z,1.97
2022-11-02T12:18:02.471Z,2.80
2022-11-02T12:20:56.449Z,2.30
2022-11-02T12:23:49.625Z,2.17
2022-11-02T12:26:32.057Z,2.40
2022-11-02T12:29:29.931Z,2.00
2022-11-02T12:32:32.231Z,2.30
2022-11-02T12:35:30.805Z,2.10
2022-11-02T12:38:32.812Z,2.40
2022-11-02T12:41:16.356Z,2.70
2022-11-02T12:43:48.207Z,2.13
2022-11-02T12:46:38.005Z,2.27
2022-11-02T12:49:28.322Z,2.13
2022-11-02T12:52:19.940Z,2.23
2022-11-02T12:54:53.532Z,2.00
2022-11-02T12:57:24.343Z,1.87
2022-11-02T13:00:26.927Z,2.10
2022-11-02T13:03:23.861Z,2.50
2022-11-02T13:05:57.538Z,2.50
2022-11-02T13:08:42.584Z,1.77
2022-11-02T13:11:22.566Z,1.93
2022-11-02T13:13:55.735Z,2.00
2022-11-02T13:17:01.599Z,1.90
2022-11-02T13:19:36.467Z,2.53
2022-11-02T13:22:04.897Z,2.00
2022-11-02T13:24:36.673Z,2.53
2022-11-02T13:27:21.845Z,2.63
2022-11-02T13:29:58.465Z,2.03
2022-11-02T13:32:45.869Z,2.17
2022-11-02T13:35:30.634Z,1.90
2022-11-02T13:38:33.841Z,1.93
2022-11-02T13:41:29.871Z,1.40
2022-11-02T13:44:26.543Z,1.60
2022-11-02T13:47:19.156Z,2.00
2022-11-02T13:49:53.364Z,2.47
2022-11-02T13:52:33.882Z,2.10
2022-11-02T13:55:05.484Z,1.70
2022-11-02T13:57:44.982Z,1.80
2022-11-02T14:00:23.992Z,2.13
2022-11-02T14:03:21.114Z,2.70
2022-11-02T14:06:09.635Z,1.83
2022-11-02T14:08:39.895Z,1.50
2022-11-02T14:11:09.862Z,1.87
2022-11-02T14:13:54.063Z,2.00
2022-11-02T14:16:46.123Z,1.70
2022-11-02T14:19:45.518Z,1.97
2022-11-02T14:22:16.202Z,1.83
2022-11-02T14:24:43.102Z,2.13
2022-11-02T14:27:13.082Z,2.30
2022-11-02T14:29:44.999Z,1.77
2022-11-02T14:32:21.824Z,2.30
2022-11-02T14:35:19.798Z,1.80
2022-11-02T14:38:15.079Z,1.97
2022-11-02T14:41:16.370Z,1.93
2022-11-02T14:44:07.386Z,1.93
2022-11-02T14:46:46.513Z,1.43
2022-11-02T14:49:23.070Z,2.00
2022-11-02T14:52:04.495Z,1.97
2022-11-02T14:54:39.439Z,1.80
2022-11-02T14:57:27.037Z,2.40
2022-11-02T14:59:58.784Z,1.77
2022-11-02T15:02:43.211Z,1.70
2022-11-02T15:05:33.933Z,2.07
2022-11-02T15:08:33.238Z,2.37
2022-11-02T15:11:37.776Z,2.30
2022-11-02T15:14:42.607Z,1.90
2022-11-02T15:17:18.625Z,1.90
2022-11-02T15:19:53.770Z,2.17
2022-11-02T15:22:32.681Z,2.23
2022-11-02T15:25:21.554Z,1.97
2022-11-02T15:27:52.236Z,2.80
2022-11-02T15:30:27.801Z,2.20
2022-11-02T15:33:04.172Z,1.90
2022-11-02T15:35:37.604Z,2.33
2022-11-02T15:38:17.543Z,2.20
2022-11-02T15:41:00.908Z,1.87
2022-11-02T15:43:46.994Z,2.03
2022-11-02T15:46:42.238Z,2.40
2022-11-02T15:49:11.909Z,2.57
2022-11-02T15:51:56.108Z,2.47
2022-11-02T15:54:46.383Z,2.63
2022-11-02T15:57:41.281Z,2.63
2022-11-02T16:00:17.042Z,2.20
2022-11-02T16:02:52.972Z,2.30
2022-11-02T16:05:27.882Z,2.17
2022-11-02T16:08:10.878Z,2.53
2022-11-02T16:10:39.356Z,2.20
2022-11-02T16:13:18.674Z,2.50
2022-11-02T16:15:50.567Z,2.00
2022-11-02T16:18:29.392Z,2.80
2022-11-02T16:21:04.059Z,2.90
2022-11-02T16:23:37.170Z,2.43
2022-11-02T16:26:13.655Z,1.97
2022-11-02T16:28:42.602Z,2.33
2022-11-02T16:31:32.092Z,2.57
2022-11-02T16:34:31.995Z,2.67
2022-11-02T16:37:08.941Z,2.67
2022-11-02T16:39:39.787Z,2.60
2022-11-02T16:42:22.991Z,2.40
2022-11-02T16:45:01.029Z,2.20
2022-11-02T16:47:42.079Z,2.23
2022-11-02T16:50:25.718Z,2.70
2022-11-02T16:53:01.481Z,2.23
2022-11-02T16:55:46.466Z,2.13
2022-11-02T16:58:24.368Z,2.33
2022-11-02T17:01:05.339Z,2.40
2022-11-02T17:03:34.895Z,2.17
2022-11-02T17:06:07.060Z,3.00
2022-11-02T17:08:41.697Z,3.40
2022-11-02T17:11:14.937Z,2.93
2022-11-02T17:13:51.683Z,3.00
2022-11-02T17:16:19.304Z,2.87
2022-11-02T17:18:46.620Z,4.13
2022-11-02T17:21:14.840Z,3.00
2022-11-02T17:23:45.882Z,3.10
2022-11-02T17:26:29.160Z,2.80
2022-11-02T17:28:58.705Z,1.90
2022-11-02T17:31:25.693Z,2.70
2022-11-02T17:33:54.387Z,2.40
2022-11-02T17:36:22.878Z,2.50
2022-11-02T17:38:50.850Z,2.60
2022-11-02T17:41:40.519Z,3.00
2022-11-02T17:44:16.662Z,2.53
2022-11-02T17:46:46.702Z,2.53
2022-11-02T17:49:19.608Z,3.00
2022-11-02T17:52:02.704Z,2.57
2022-11-02T17:54:32.735Z,2.60
2022-11-02T17:57:05.382Z,2.70
2022-11-02T17:59:33.329Z,2.57
2022-11-02T18:02:00.796Z,3.87
2022-11-02T18:04:28.966Z,2.30
2022-11-02T18:06:58.971Z,3.17
2022-11-02T18:09:29.298Z,2.60
2022-11-02T18:11:56.411Z,2.80
2022-11-02T18:14:26.377Z,2.70
2022-11-02T18:16:54.500Z,2.80
2022-11-02T18:19:24.445Z,3.03
2022-11-02T18:21:52.362Z,2.70
2022-11-02T18:24:20.526Z,2.97
2022-11-02T18:26:48.439Z,3.27
2022-11-02T18:29:16.364Z,2.60
2022-11-02T18:31:43.394Z,2.60
2022-11-02T18:34:13.300Z,2.70
2022-11-02T18:36:40.914Z,2.63
2022-11-02T18:39:09.100Z,2.60
2022-11-02T18:41:37.644Z,3.10
2022-11-02T18:44:13.494Z,2.60
2022-11-02T18:46:41.880Z,2.57
2022-11-02T18:49:11.936Z,3.33
2022-11-02T18:51:51.584Z,2.70
2022-11-02T18:54:20.746Z,2.93
2022-11-02T18:56:50.778Z,3.50
2022-11-02T18:59:18.763Z,2.73
2022-11-02T19:01:46.764Z,2.90
2022-11-02T19:04:17.678Z,2.73
2022-11-02T19:07:06.521Z,2.60
2022-11-02T19:09:35.700Z,2.87
2022-11-02T19:12:09.307Z,3.17
2022-11-02T19:14:47.092Z,2.77
2022-11-02T19:17:15.155Z,2.87
2022-11-02T19:19:46.664Z,3.20
2022-11-02T19:22:25.182Z,2.77
2022-11-02T19:24:52.617Z,3.67
2022-11-02T19:27:28.895Z,2.27
2022-11-02T19:29:56.824Z,2.50
2022-11-02T19:32:27.059Z,3.00
2022-11-02T19:34:56.046Z,3.20
2022-11-02T19:37:31.773Z,2.70
2022-11-02T19:40:04.782Z,2.50
2022-11-02T19:42:32.776Z,2.60
2022-11-02T19:45:01.120Z,3.43
2022-11-02T19:47:34.432Z,3.37
2022-11-02T19:50:04.637Z,3.43
2022-11-02T19:52:37.927Z,2.20
2022-11-02T19:55:07.427Z,3.47
2022-11-02T19:57:35.371Z,2.80
2022-11-02T20:00:02.501Z,2.43
2022-11-02T20:02:32.531Z,3.10
2022-11-02T20:05:02.767Z,3.17
2022-11-02T20:07:34.763Z,2.80
2022-11-02T20:10:02.715Z,3.43
2022-11-02T20:12:36.159Z,2.90
2022-11-02T20:15:04.327Z,2.73
2022-11-02T20:17:42.176Z,3.47
2022-11-02T20:20:16.891Z,2.47
2022-11-02T20:22:43.989Z,2.67
2022-11-02T20:25:14.590Z,3.30
2022-11-02T20:27:45.274Z,3.10
2022-11-02T20:30:19.426Z,2.60
2022-11-02T20:32:49.714Z,3.47
2022-11-02T20:35:24.651Z,2.63
2022-11-02T20:37:53.994Z,3.13
2022-11-02T20:40:20.915Z,2.80
2022-11-02T20:42:49.883Z,2.47
2022-11-02T20:45:18.056Z,3.17
2022-11-02T20:47:44.979Z,2.77
2022-11-02T20:50:16.004Z,2.63
2022-11-02T20:52:45.308Z,3.43
2022-11-02T20:55:12.208Z,3.27
2022-11-02T20:57:39.247Z,2.63
2022-11-02T21:00:06.845Z,2.33
2022-11-02T21:02:33.776Z,2.77
2022-11-02T21:05:00.893Z,3.23
2022-11-02T21:07:27.747Z,3.10
2022-11-02T21:09:54.692Z,2.83
2022-11-02T21:12:39.893Z,3.03
2022-11-02T21:15:07.354Z,2.60
2022-11-02T21:17:35.119Z,2.80
2022-11-02T21:20:28.476Z,3.00
2022-11-02T21:22:52.436Z,2.80
2022-11-02T21:25:19.419Z,2.60
2022-11-02T21:27:50.987Z,2.33
2022-11-02T21:30:18.780Z,2.73
2022-11-02T21:32:46.013Z,2.50
2022-11-02T21:35:12.927Z,2.70
2022-11-02T21:37:39.782Z,2.47
2022-11-02T21:40:07.346Z,2.90
2022-11-02T21:42:34.241Z,2.50
2022-11-02T21:45:01.201Z,2.97
2022-11-02T21:47:34.202Z,2.50
2022-11-02T21:50:02.420Z,2.97
2022-11-02T21:52:30.327Z,2.60
2022-11-02T21:54:57.256Z,3.40
2022-11-02T21:57:24.172Z,2.63
2022-11-02T21:59:51.051Z,2.30
2022-11-02T22:02:20.158Z,2.53
2022-11-02T22:04:53.576Z,4.07
2022-11-02T22:07:23.639Z,2.90
2022-11-02T22:09:50.601Z,2.90
2022-11-02T22:12:37.967Z,2.97
2022-11-02T22:15:05.403Z,2.70
2022-11-02T22:20:19.161Z,2.97
2022-11-02T22:22:48.107Z,2.73
2022-11-02T22:25:18.011Z,2.77
2022-11-02T22:27:48.062Z,2.87
2022-11-02T22:30:18.009Z,2.53
2022-11-02T22:32:44.860Z,2.77
2022-11-02T22:35:12.908Z,2.90
2022-11-02T22:37:58.250Z,2.77
2022-11-02T22:40:25.257Z,2.77
2022-11-02T22:42:57.156Z,3.27
2022-11-02T22:45:24.141Z,2.80
2022-11-02T22:47:54.159Z,2.97
2022-11-02T22:50:26.808Z,3.10
2022-11-02T22:52:56.882Z,2.77
2022-11-02T22:55:25.871Z,3.20
2022-11-02T22:57:59.761Z,2.90
2022-11-02T23:00:28.150Z,3.00
2022-11-02T23:02:55.070Z,2.37
2022-11-02T23:05:23.147Z,3.07
2022-11-02T23:07:51.182Z,2.83
2022-11-02T23:10:38.499Z,2.20
2022-11-02T23:13:05.657Z,2.83
2022-11-02T23:15:32.677Z,2.63
2022-11-02T23:17:59.667Z,3.10
2022-11-02T23:20:32.598Z,3.00
2022-11-02T23:23:18.383Z,2.80
2022-11-02T23:25:53.731Z,2.37
2022-11-02T23:28:41.688Z,3.13
2022-11-02T23:31:34.058Z,2.90
2022-11-02T23:34:04.021Z,2.80
2022-11-02T23:36:31.051Z,2.50
2022-11-02T23:39:17.345Z,2.87
2022-11-02T23:41:47.406Z,2.30
2022-11-02T23:44:19.375Z,2.67
2022-11-02T23:46:51.440Z,2.80
2022-11-02T23:49:19.619Z,2.63
2022-11-02T23:52:07.051Z,2.90
2022-11-02T23:54:54.290Z,2.50
2022-11-02T23:57:25.646Z,2.80
2022-11-02T23:59:54.623Z,2.60
